createdAt,value
2022-08-28T00:02:15.789Z,101296.19
2022-08-28T00:04:44.094Z,101301.53
2022-08-28T00:07:12.614Z,101293.53
2022-08-28T00:09:40.703Z,101290.91
2022-08-28T00:12:09.450Z,101296.25
2022-08-28T00:14:40.054Z,101302.53
2022-08-28T00:17:08.120Z,101289.28
2022-08-28T00:19:38.625Z,101304.38
2022-08-28T00:22:07.637Z,101303.44
2022-08-28T00:24:36.956Z,101308.03
2022-08-28T00:27:23.087Z,101305.66
2022-08-28T00:29:52.647Z,101302.16
2022-08-28T00:32:23.776Z,101279.81
2022-08-28T00:34:53.933Z,101306.94
2022-08-28T00:37:24.773Z,101313.28
2022-08-28T00:39:53.403Z,101315.13
2022-08-28T00:42:21.999Z,101302.78
2022-08-28T00:44:50.077Z,101314.44
2022-08-28T00:47:19.864Z,101309.28
2022-08-28T00:49:51.243Z,101313.59
2022-08-28T00:52:20.617Z,101301.22
2022-08-28T00:54:59.157Z,101313.66
2022-08-28T00:57:32.181Z,101313.81
2022-08-28T01:00:00.344Z,101318.88
2022-08-28T01:02:31.959Z,101319.06
2022-08-28T01:05:00.382Z,101308.50
2022-08-28T01:07:28.448Z,101311.97
2022-08-28T01:09:58.542Z,101306.72
2022-08-28T01:12:30.261Z,101293.72
2022-08-28T01:15:03.521Z,101312.06
2022-08-28T01:17:37.809Z,101304.81
2022-08-28T01:20:15.002Z,101310.25
2022-08-28T01:22:50.400Z,101304.63
2022-08-28T01:25:24.838Z,101311.03
2022-08-28T01:27:52.908Z,101310.06
2022-08-28T01:30:24.287Z,101315.31
2022-08-28T01:32:55.034Z,101321.00
2022-08-28T01:35:26.254Z,101319.50
2022-08-28T01:37:56.225Z,101316.09
2022-08-28T01:40:30.303Z,101314.25
2022-08-28T01:43:08.618Z,101310.91
2022-08-28T01:45:37.924Z,101308.16
2022-08-28T01:48:07.005Z,101320.41
2022-08-28T01:50:36.046Z,101316.00
2022-08-28T01:53:06.465Z,101312.25
2022-08-28T01:55:42.048Z,101317.72
2022-08-28T01:58:11.996Z,101321.22
2022-08-28T02:00:41.331Z,101314.25
2022-08-28T02:03:10.070Z,101310.69
2022-08-28T02:05:40.152Z,101315.00
2022-08-28T02:08:09.388Z,101313.38
2022-08-28T02:10:43.773Z,101300.25
2022-08-28T02:13:13.009Z,101312.06
2022-08-28T02:15:42.868Z,101306.91
2022-08-28T02:18:11.502Z,101318.28
2022-08-28T02:20:39.917Z,101317.38
2022-08-28T02:23:08.097Z,101306.84
2022-08-28T02:25:36.795Z,101306.84
2022-08-28T02:28:06.698Z,101308.75
2022-08-28T02:30:37.246Z,101310.41
2022-08-28T02:33:05.714Z,101303.25
2022-08-28T02:35:34.036Z,101306.72
2022-08-28T02:38:02.966Z,101302.34
2022-08-28T02:40:31.689Z,101303.25
2022-08-28T02:43:00.361Z,101299.66
2022-08-28T02:45:29.931Z,101291.84
2022-08-28T02:47:58.047Z,101302.13
2022-08-28T02:50:26.297Z,101303.84
2022-08-28T02:52:55.087Z,101294.25
2022-08-28T02:55:24.779Z,101295.31
2022-08-28T02:57:54.709Z,101296.19
2022-08-28T03:00:24.892Z,101292.78
2022-08-28T03:02:54.947Z,101285.69
2022-08-28T03:05:25.170Z,101296.06
2022-08-28T03:07:54.730Z,101280.81
2022-08-28T03:10:23.038Z,101283.66
2022-08-28T03:12:51.894Z,101285.41
2022-08-28T03:15:20.350Z,101288.25
2022-08-28T03:17:48.698Z,101284.78
2022-08-28T03:20:20.043Z,101289.38
2022-08-28T03:23:05.433Z,101274.00
2022-08-28T03:25:33.695Z,101278.59
2022-08-28T03:28:01.875Z,101268.13
2022-08-28T03:30:30.395Z,101283.00
2022-08-28T03:32:58.643Z,101292.56
2022-08-28T03:35:28.288Z,101280.66
2022-08-28T03:37:56.636Z,101296.41
2022-08-28T03:40:25.005Z,101295.56
2022-08-28T03:42:53.794Z,101287.44
2022-08-28T03:45:22.788Z,101282.09
2022-08-28T03:47:51.508Z,101285.59
2022-08-28T03:50:19.898Z,101281.91
2022-08-28T03:52:49.651Z,101275.69
2022-08-28T03:55:19.909Z,101279.16
2022-08-28T03:57:48.109Z,101276.59
2022-08-28T04:00:17.529Z,101273.09
2022-08-28T04:02:46.310Z,101276.59
2022-08-28T04:05:17.254Z,101273.69
2022-08-28T04:07:45.718Z,101273.00
2022-08-28T04:10:15.937Z,101278.34
2022-08-28T04:12:44.879Z,101253.69
2022-08-28T04:15:15.330Z,101271.25
2022-08-28T04:17:43.784Z,101263.31
2022-08-28T04:20:12.525Z,101269.53
2022-08-28T04:22:41.015Z,101274.56
2022-08-28T04:25:09.977Z,101273.00
2022-08-28T04:27:40.345Z,101273.09
2022-08-28T04:30:10.015Z,101267.94
2022-08-28T04:32:39.833Z,101273.25
2022-08-28T04:35:11.391Z,101282.94
2022-08-28T04:37:40.335Z,101277.47
2022-08-28T04:40:11.031Z,101265.91
2022-08-28T04:42:45.301Z,101266.94
2022-08-28T04:45:13.651Z,101271.25
2022-08-28T04:47:41.934Z,101276.66
2022-08-28T04:50:12.778Z,101263.31
2022-08-28T04:52:40.736Z,101269.41
2022-08-28T04:55:10.398Z,101265.03
2022-08-28T04:57:38.710Z,101262.16
2022-08-28T05:00:11.561Z,101267.06
2022-08-28T05:02:40.070Z,101275.03
2022-08-28T05:05:09.037Z,101271.53
2022-08-28T05:07:37.119Z,101273.25
2022-08-28T05:10:05.826Z,101275.91
2022-08-28T05:12:35.895Z,101269.69
2022-08-28T05:15:04.326Z,101266.00
2022-08-28T05:17:34.411Z,101246.06
2022-08-28T05:20:02.681Z,101276.66
2022-08-28T05:22:32.266Z,101241.47
2022-08-28T05:25:01.893Z,101274.84
2022-08-28T05:27:30.613Z,101273.00
2022-08-28T05:30:01.960Z,101279.75
2022-08-28T05:32:30.640Z,101273.59
2022-08-28T05:35:00.230Z,101272.50
2022-08-28T05:37:28.625Z,101273.47
2022-08-28T05:39:57.029Z,101261.81
2022-08-28T05:42:29.499Z,101265.28
2022-08-28T05:44:59.753Z,101256.31
2022-08-28T05:47:27.918Z,101261.59
2022-08-28T05:49:56.404Z,101254.91
2022-08-28T05:52:26.470Z,101246.97
2022-08-28T05:54:54.831Z,101239.78
2022-08-28T05:57:23.063Z,101240.22
2022-08-28T05:59:51.587Z,101249.25
2022-08-28T06:02:19.667Z,101242.75
2022-08-28T06:04:49.111Z,101253.31
2022-08-28T06:07:17.587Z,101242.53
2022-08-28T06:09:47.110Z,101254.84
2022-08-28T06:12:15.747Z,101255.50
2022-08-28T06:14:44.125Z,101252.81
2022-08-28T06:17:13.072Z,101224.56
2022-08-28T06:19:41.756Z,101241.81
2022-08-28T06:22:12.567Z,101247.06
2022-08-28T06:24:40.708Z,101253.00
2022-08-28T06:27:10.205Z,101266.34
2022-08-28T06:29:40.073Z,101248.59
2022-08-28T06:32:09.188Z,101264.81
2022-08-28T06:34:37.647Z,101264.13
2022-08-28T06:37:08.552Z,101259.50
2022-08-28T06:39:36.646Z,101263.88
2022-08-28T06:42:05.581Z,101272.72
2022-08-28T06:44:35.258Z,101273.56
2022-08-28T06:47:03.551Z,101267.16
2022-08-28T06:49:31.641Z,101275.03
2022-08-28T06:52:00.221Z,101268.78
2022-08-28T06:54:31.059Z,101269.03
2022-08-28T06:56:59.442Z,101279.28
2022-08-28T06:59:27.770Z,101280.91
2022-08-28T07:01:57.281Z,101286.19
2022-08-28T07:04:25.451Z,101288.03
2022-08-28T07:06:54.915Z,101285.97
2022-08-28T07:09:24.353Z,101280.28
2022-08-28T07:11:52.615Z,101271.56
2022-08-28T07:14:20.914Z,101275.06
2022-08-28T07:16:49.055Z,101272.44
2022-08-28T07:19:18.554Z,101269.94
2022-08-28T07:21:48.330Z,101276.56
2022-08-28T07:24:17.641Z,101286.28
2022-08-28T07:26:47.114Z,101279.97
2022-08-28T07:29:15.523Z,101271.13
2022-08-28T07:31:45.458Z,101283.59
2022-08-28T07:34:14.728Z,101279.84
2022-08-28T07:36:44.942Z,101290.22
2022-08-28T07:39:14.883Z,101272.53
2022-08-28T07:41:43.768Z,101286.25
2022-08-28T07:44:31.969Z,101293.16
2022-08-28T07:47:04.549Z,101272.56
2022-08-28T07:49:34.041Z,101266.16
2022-08-28T07:52:04.267Z,101282.69
2022-08-28T07:54:32.367Z,101269.31
2022-08-28T07:57:02.387Z,101289.03
2022-08-28T07:59:36.554Z,101278.50
2022-08-28T08:02:07.968Z,101276.63
2022-08-28T08:04:38.651Z,101283.72
2022-08-28T08:07:09.141Z,101294.56
2022-08-28T08:09:43.194Z,101293.97
2022-08-28T08:12:13.911Z,101296.66
2022-08-28T08:14:43.289Z,101296.66
2022-08-28T08:17:12.140Z,101298.41
2022-08-28T08:19:41.072Z,101297.91
2022-08-28T08:22:14.213Z,101296.03
2022-08-28T08:24:43.178Z,101295.56
2022-08-28T08:27:11.703Z,101286.47
2022-08-28T08:29:40.257Z,101284.47
2022-08-28T08:32:11.958Z,101291.16
2022-08-28T08:34:42.291Z,101290.81
2022-08-28T08:37:11.961Z,101299.75
2022-08-28T08:39:43.409Z,101301.34
2022-08-28T08:42:22.395Z,101223.03
2022-08-28T08:44:53.318Z,101293.78
2022-08-28T08:47:24.214Z,101277.44
2022-08-28T08:49:56.077Z,101305.09
2022-08-28T08:52:40.100Z,101301.34
2022-08-28T08:55:24.689Z,101299.38
2022-08-28T08:58:03.002Z,101325.19
2022-08-28T09:00:34.610Z,101334.97
2022-08-28T09:03:10.523Z,101323.75
2022-08-28T09:05:45.567Z,101330.44
2022-08-28T09:08:23.082Z,101316.22
2022-08-28T09:11:02.212Z,101333.78
2022-08-28T09:13:42.600Z,101329.81
2022-08-28T09:16:22.428Z,101320.16
2022-08-28T09:18:51.218Z,101291.00
2022-08-28T09:21:30.312Z,101287.19
2022-08-28T09:24:05.494Z,101318.53
2022-08-28T09:26:36.657Z,101318.84
2022-08-28T09:29:11.589Z,101315.91
2022-08-28T09:31:42.523Z,101318.25
2022-08-28T09:34:30.273Z,101307.06
2022-08-28T09:37:00.315Z,101315.66
2022-08-28T09:39:30.770Z,101310.84
2022-08-28T09:42:23.337Z,101321.16
2022-08-28T09:44:59.786Z,101321.84
2022-08-28T09:47:48.950Z,101320.25
2022-08-28T09:50:24.722Z,101327.53
2022-08-28T09:52:55.548Z,101317.22
2022-08-28T09:55:33.146Z,101308.38
2022-08-28T09:58:03.139Z,101322.59
2022-08-28T10:00:35.628Z,101330.28
2022-08-28T10:03:14.768Z,101325.06
2022-08-28T10:06:00.444Z,101330.56
2022-08-28T10:08:39.117Z,101321.44
2022-08-28T10:11:20.589Z,101332.75
2022-08-28T10:13:58.160Z,101335.25
2022-08-28T10:16:36.869Z,101340.66
2022-08-28T10:19:14.062Z,101333.91
2022-08-28T10:21:47.192Z,101340.66
2022-08-28T10:24:39.596Z,101342.41
2022-08-28T10:27:15.045Z,101351.19
2022-08-28T10:29:54.490Z,101336.09
2022-08-28T10:32:43.199Z,101347.31
2022-08-28T10:35:16.738Z,101339.19
2022-08-28T10:37:59.037Z,101339.78
2022-08-28T10:40:32.000Z,101339.97
2022-08-28T10:43:07.449Z,101347.34
2022-08-28T10:45:39.177Z,101343.72
2022-08-28T10:48:11.398Z,101341.81
2022-08-28T10:50:45.158Z,101342.38
2022-08-28T10:53:17.484Z,101338.94
2022-08-28T10:55:55.393Z,101351.97
2022-08-28T10:58:27.568Z,101342.06
2022-08-28T11:00:59.559Z,101357.44
2022-08-28T11:03:36.919Z,101356.75
2022-08-28T11:06:11.667Z,101359.59
2022-08-28T11:08:41.220Z,101348.88
2022-08-28T11:11:15.139Z,101365.31
2022-08-28T11:13:51.932Z,101359.91
2022-08-28T11:16:36.926Z,101365.53
2022-08-28T11:19:52.278Z,101368.41
2022-08-28T11:22:24.199Z,101366.44
2022-08-28T11:25:04.418Z,101360.19
2022-08-28T11:27:38.931Z,101364.00
2022-08-28T11:30:34.282Z,101362.44
2022-08-28T11:33:06.960Z,101363.19
2022-08-28T11:35:45.335Z,101348.09
2022-08-28T11:38:34.480Z,101372.75
2022-08-28T11:41:14.647Z,101378.44
2022-08-28T11:43:45.252Z,101376.56
2022-08-28T11:46:31.563Z,101386.47
2022-08-28T11:49:03.507Z,101369.59
2022-08-28T11:51:44.918Z,101369.16
2022-08-28T11:54:29.640Z,101384.06
2022-08-28T11:57:09.342Z,101389.72
2022-08-28T11:59:57.797Z,101384.91
2022-08-28T12:02:49.578Z,101392.53
2022-08-28T12:05:54.444Z,101389.28
2022-08-28T12:09:11.155Z,101405.78
2022-08-28T12:11:54.812Z,101392.66
2022-08-28T12:15:07.943Z,101402.72
2022-08-28T12:17:54.329Z,101402.66
2022-08-28T12:20:36.713Z,101412.28
2022-08-28T12:23:33.078Z,101417.59
2022-08-28T12:26:04.273Z,101417.34
2022-08-28T12:28:34.852Z,101408.63
2022-08-28T12:31:48.228Z,101416.16
2022-08-28T12:34:26.646Z,101426.63
2022-08-28T12:36:59.860Z,101430.66
2022-08-28T12:39:32.422Z,101439.63
2022-08-28T12:42:03.079Z,101432.97
2022-08-28T12:44:34.141Z,101435.59
2022-08-28T12:47:02.340Z,101429.34
2022-08-28T12:49:34.431Z,101437.81
2022-08-28T12:52:16.633Z,101419.94
2022-08-28T12:54:47.567Z,101424.72
2022-08-28T12:57:18.560Z,101431.59
2022-08-28T12:59:49.141Z,101419.75
2022-08-28T13:02:27.124Z,101424.75
2022-08-28T13:04:59.478Z,101416.03
2022-08-28T13:07:31.360Z,101423.78
2022-08-28T13:10:04.804Z,101421.25
2022-08-28T13:12:55.851Z,101402.19
2022-08-28T13:15:49.076Z,101417.91
2022-08-28T13:18:43.898Z,101410.91
2022-08-28T13:21:33.696Z,101419.31
2022-08-28T13:24:27.519Z,101416.69
2022-08-28T13:27:07.083Z,101402.81
2022-08-28T13:29:38.863Z,101405.22
2022-08-28T13:32:18.630Z,101409.59
2022-08-28T13:35:09.665Z,101409.31
2022-08-28T13:37:50.700Z,101403.81
2022-08-28T13:40:46.620Z,101405.47
2022-08-28T13:43:11.862Z,101387.47
2022-08-28T13:45:44.024Z,101403.97
2022-08-28T13:48:13.593Z,101410.84
2022-08-28T13:50:44.815Z,101405.13
2022-08-28T13:53:17.433Z,101408.84
2022-08-28T13:55:46.170Z,101407.97
2022-08-28T13:58:16.216Z,101408.72
2022-08-28T14:00:47.264Z,101409.06
2022-08-28T14:03:33.879Z,101408.28
2022-08-28T14:06:03.267Z,101406.66
2022-08-28T14:08:32.199Z,101411.03
2022-08-28T14:11:00.496Z,101413.75
2022-08-28T14:13:30.744Z,101410.69
2022-08-28T14:15:59.582Z,101412.00
2022-08-28T14:18:28.067Z,101381.34
2022-08-28T14:20:56.427Z,101406.59
2022-08-28T14:23:24.917Z,101402.63
2022-08-28T14:25:52.983Z,101404.47
2022-08-28T14:28:21.377Z,101403.91
2022-08-28T14:30:52.748Z,101416.69
2022-08-28T14:33:21.153Z,101409.94
2022-08-28T14:35:50.255Z,101408.78
2022-08-28T14:38:19.102Z,101419.84
2022-08-28T14:40:47.359Z,101395.47
2022-08-28T14:43:16.482Z,101410.75
2022-08-28T14:45:47.069Z,101403.41
2022-08-28T14:48:18.752Z,101416.03
2022-08-28T14:50:48.458Z,101422.59
2022-08-28T14:53:17.473Z,101430.34
2022-08-28T14:55:48.623Z,101426.47
2022-08-28T14:58:17.335Z,101426.16
2022-08-28T15:00:49.054Z,101433.94
2022-08-28T15:03:20.186Z,101434.13
2022-08-28T15:05:48.735Z,101427.22
2022-08-28T15:08:18.518Z,101430.81
2022-08-28T15:10:48.866Z,101441.84
2022-08-28T15:13:17.317Z,101442.13
2022-08-28T15:15:45.513Z,101442.16
2022-08-28T15:18:13.955Z,101436.84
2022-08-28T15:20:46.400Z,101441.09
2022-08-28T15:23:16.608Z,101430.72
2022-08-28T15:25:44.921Z,101414.44
2022-08-28T15:28:13.536Z,101443.63
2022-08-28T15:30:42.497Z,101442.94
2022-08-28T15:33:10.786Z,101445.47
2022-08-28T15:35:39.267Z,101431.41
2022-08-28T15:38:10.223Z,101382.19
2022-08-28T15:40:55.815Z,101442.16
2022-08-28T15:43:24.181Z,101447.84
2022-08-28T15:45:52.565Z,101415.81
2022-08-28T15:48:20.831Z,101445.47
2022-08-28T15:50:49.208Z,101459.84
2022-08-28T15:53:19.459Z,101453.81
2022-08-28T15:55:48.020Z,101471.38
2022-08-28T15:58:16.369Z,101479.19
2022-08-28T16:00:44.838Z,101475.69
2022-08-28T16:03:13.156Z,101484.03
2022-08-28T16:05:41.574Z,101476.38
2022-08-28T16:08:10.787Z,101487.78
2022-08-28T16:10:41.113Z,101473.78
2022-08-28T16:13:09.674Z,101481.03
2022-08-28T16:15:38.089Z,101475.53
2022-08-28T16:18:09.500Z,101480.94
2022-08-28T16:20:38.204Z,101481.16
2022-08-28T16:23:06.800Z,101490.72
2022-08-28T16:25:35.780Z,101470.56
2022-08-28T16:28:06.611Z,101487.56
2022-08-28T16:30:38.591Z,101482.78
2022-08-28T16:33:12.714Z,101470.75
2022-08-28T16:35:54.855Z,101482.53
2022-08-28T16:38:24.403Z,101496.06
2022-08-28T16:40:52.790Z,101495.50
2022-08-28T16:43:22.338Z,101498.47
2022-08-28T16:45:51.212Z,101496.69
2022-08-28T16:48:19.621Z,101496.94
2022-08-28T16:50:47.696Z,101494.38
2022-08-28T16:53:16.065Z,101502.16
2022-08-28T16:55:52.725Z,101505.91
2022-08-28T16:58:22.301Z,101501.38
2022-08-28T17:00:52.585Z,101497.91
2022-08-28T17:03:26.495Z,101501.41
2022-08-28T17:05:56.304Z,101488.34
2022-08-28T17:08:25.279Z,101508.56
2022-08-28T17:10:53.956Z,101508.44
2022-08-28T17:13:23.695Z,101501.78
2022-08-28T17:15:52.272Z,101519.34
2022-08-28T17:18:20.475Z,101512.03
2022-08-28T17:21:06.133Z,101521.03
2022-08-28T17:23:38.845Z,101526.44
2022-08-28T17:26:10.462Z,101524.69
2022-08-28T17:28:40.636Z,101528.47
2022-08-28T17:31:11.755Z,101523.00
2022-08-28T17:33:41.109Z,101529.25
2022-08-28T17:36:17.087Z,101539.00
2022-08-28T17:39:01.616Z,101533.75
2022-08-28T17:41:30.111Z,101532.84
2022-08-28T17:43:59.639Z,101542.84
2022-08-28T17:46:27.974Z,101540.00
2022-08-28T17:48:56.409Z,101527.09
2022-08-28T17:51:33.804Z,101544.63
2022-08-28T17:54:13.018Z,101544.94
2022-08-28T17:56:41.485Z,101551.88
2022-08-28T17:59:11.153Z,101523.75
2022-08-28T18:01:45.219Z,101535.19
2022-08-28T18:04:21.636Z,101530.53
2022-08-28T18:06:54.821Z,101546.00
2022-08-28T18:09:24.499Z,101529.41
2022-08-28T18:11:53.119Z,101553.56
2022-08-28T18:14:23.221Z,101564.38
2022-08-28T18:16:51.376Z,101575.06
2022-08-28T18:19:20.228Z,101568.13
2022-08-28T18:21:48.394Z,101580.50
2022-08-28T18:24:17.384Z,101570.75
2022-08-28T18:26:47.459Z,101581.34
2022-08-28T18:29:16.094Z,101584.06
2022-08-28T18:31:46.062Z,101577.06
2022-08-28T18:34:14.263Z,101576.91
2022-08-28T18:36:42.856Z,101582.28
2022-08-28T18:39:12.127Z,101578.47
2022-08-28T18:41:43.790Z,101582.13
2022-08-28T18:44:14.074Z,101593.19
2022-08-28T18:46:42.781Z,101584.59
2022-08-28T18:49:13.149Z,101586.16
2022-08-28T18:51:45.648Z,101588.22
2022-08-28T18:54:16.002Z,101586.66
2022-08-28T18:56:45.393Z,101588.41
2022-08-28T18:59:14.041Z,101580.66
2022-08-28T19:01:42.430Z,101600.94
2022-08-28T19:04:12.262Z,101602.66
2022-08-28T19:06:42.649Z,101585.03
2022-08-28T19:09:19.299Z,101587.06
2022-08-28T19:11:49.322Z,101583.47
2022-08-28T19:14:17.837Z,101603.00
2022-08-28T19:16:46.134Z,101603.94
2022-08-28T19:19:16.143Z,101608.31
2022-08-28T19:21:44.351Z,101608.25
2022-08-28T19:24:16.549Z,101580.94
2022-08-28T19:26:45.230Z,101597.97
2022-08-28T19:29:13.860Z,101624.38
2022-08-28T19:31:43.762Z,101613.88
2022-08-28T19:34:13.097Z,101627.78
2022-08-28T19:36:42.912Z,101609.63
2022-08-28T19:39:11.357Z,101639.84
2022-08-28T19:41:40.085Z,101642.81
2022-08-28T19:44:09.105Z,101643.84
2022-08-28T19:46:39.145Z,101653.72
2022-08-28T19:49:08.262Z,101639.84
2022-08-28T19:51:37.713Z,101656.53
2022-08-28T19:54:11.235Z,101664.56
2022-08-28T19:56:40.139Z,101649.53
2022-08-28T19:59:09.132Z,101659.19
2022-08-28T20:01:40.256Z,101657.50
2022-08-28T20:04:10.292Z,101666.19
2022-08-28T20:06:41.696Z,101669.69
2022-08-28T20:09:13.030Z,101659.03
2022-08-28T20:11:42.449Z,101674.00
2022-08-28T20:14:10.675Z,101664.34
2022-08-28T20:16:41.402Z,101682.16
2022-08-28T20:19:11.323Z,101680.44
2022-08-28T20:21:41.207Z,101674.19
2022-08-28T20:24:14.333Z,101692.78
2022-08-28T20:26:42.815Z,101659.38
2022-08-28T20:29:12.347Z,101692.84
2022-08-28T20:31:42.284Z,101692.78
2022-08-28T20:34:11.834Z,101686.81
2022-08-28T20:36:40.469Z,101655.16
2022-08-28T20:39:11.275Z,101702.63
2022-08-28T20:41:41.483Z,101698.19
2022-08-28T20:44:13.063Z,101701.72
2022-08-28T20:46:42.368Z,101709.69
2022-08-28T20:49:11.755Z,101707.81
2022-08-28T20:51:57.093Z,101707.03
2022-08-28T20:54:30.602Z,101700.09
2022-08-28T20:57:02.034Z,101719.59
2022-08-28T20:59:37.116Z,101720.44
2022-08-28T21:02:10.542Z,101725.75
2022-08-28T21:04:40.565Z,101716.94
2022-08-28T21:07:09.192Z,101707.38
2022-08-28T21:10:06.340Z,101721.34
2022-08-28T21:12:28.829Z,101682.78
2022-08-28T21:14:57.455Z,101696.91
2022-08-28T21:17:29.464Z,101719.69
2022-08-28T21:19:59.786Z,101726.75
2022-08-28T21:22:28.054Z,101733.91
2022-08-28T21:24:57.660Z,101721.66
2022-08-28T21:27:26.006Z,101743.78
2022-08-28T21:29:56.586Z,101711.19
2022-08-28T21:32:24.702Z,101746.41
2022-08-28T21:34:53.483Z,101740.28
2022-08-28T21:37:21.934Z,101757.00
2022-08-28T21:39:49.955Z,101752.63
2022-08-28T21:42:19.934Z,101755.34
2022-08-28T21:44:51.437Z,101762.16
2022-08-28T21:47:20.039Z,101761.31
2022-08-28T21:49:49.654Z,101756.88
2022-08-28T21:52:18.242Z,101763.94
2022-08-28T21:54:46.542Z,101769.28
2022-08-28T21:57:15.170Z,101771.06
2022-08-28T21:59:44.786Z,101763.97
2022-08-28T22:02:13.176Z,101728.81
2022-08-28T22:04:41.408Z,101765.72
2022-08-28T22:07:11.269Z,101767.59
2022-08-28T22:09:39.493Z,101760.59
2022-08-28T22:12:09.218Z,101767.41
2022-08-28T22:14:37.791Z,101769.28
2022-08-28T22:17:11.570Z,101771.09
2022-08-28T22:19:40.452Z,101739.44
2022-08-28T22:22:40.982Z,101778.13
2022-08-28T22:25:09.733Z,101779.81
2022-08-28T22:27:37.945Z,101783.50
2022-08-28T22:30:06.730Z,101792.34
2022-08-28T22:32:36.518Z,101776.41
2022-08-28T22:35:05.030Z,101779.94
2022-08-28T22:37:33.788Z,101785.22
2022-08-28T22:40:02.042Z,101779.84
2022-08-28T22:42:38.339Z,101786.88
2022-08-28T22:45:09.952Z,101784.41
2022-08-28T22:47:39.705Z,101781.78
2022-08-28T22:50:09.393Z,101787.88
2022-08-28T22:52:38.136Z,101796.72
2022-08-28T22:55:10.551Z,101792.38
2022-08-28T22:57:40.981Z,101797.59
2022-08-28T23:00:12.851Z,101787.06
2022-08-28T23:02:43.235Z,101783.50
2022-08-28T23:05:11.540Z,101781.81
2022-08-28T23:07:39.564Z,101795.84
2022-08-28T23:10:09.647Z,101792.38
2022-08-28T23:12:38.190Z,101792.47
2022-08-28T23:15:07.875Z,101787.09
2022-08-28T23:17:36.593Z,101793.25
2022-08-28T23:20:09.995Z,101796.00
2022-08-28T23:22:39.124Z,101795.88
2022-08-28T23:25:08.811Z,101801.19
2022-08-28T23:27:37.072Z,101801.19
2022-08-28T23:30:07.368Z,101790.63
2022-08-28T23:32:35.744Z,101798.50
2022-08-28T23:35:07.686Z,101799.47
2022-08-28T23:37:37.623Z,101798.59
2022-08-28T23:40:08.697Z,101806.59
2022-08-28T23:42:37.167Z,101797.69
2022-08-28T23:45:07.940Z,101767.94
2022-08-28T23:47:40.326Z,101806.66
2022-08-28T23:50:14.039Z,101809.31
2022-08-28T23:52:43.209Z,101804.84
2022-08-28T23:55:13.305Z,101811.00
2022-08-28T23:57:41.698Z,101810.09
